Time;durP1;ratioP1;P1;durP2;ratioP2;P2;SDS_P1;SDS_P2;PMS_P1;PMS_P2;Temp;Humidity;BMP_temperature;BMP_pressure;BME280_temperature;BME280_humidity;BME280_pressure;Samples;Min_cycle;Max_cycle;Signal;HPM_P1;HPM_P2
2021/09/25 15:39:30;;;;;;;10.00;5.60;;;;;;;13.35;49.88;98831.63;4915098;29;20075;-78
2021/09/25 15:41:58;;;;;;;8.30;4.72;;;;;;;13.34;50.07;98831.75;4885199;29;20512;-79
2021/09/25 15:44:24;;;;;;;7.18;4.75;;;;;;;13.37;50.32;98834.13;4858185;29;20056;-78
2021/09/25 15:46:53;;;;;;;8.95;5.13;;;;;;;13.39;49.90;98823.22;4885455;29;20087;-80
2021/09/25 15:49:20;;;;;;;11.93;4.65;;;;;;;13.46;49.61;98825.16;4900395;29;20541;-79
2021/09/25 15:51:48;;;;;;;7.75;4.70;;;;;;;13.48;49.90;98822.34;4885510;29;20076;-79
2021/09/25 15:54:14;;;;;;;10.60;5.43;;;;;;;13.32;49.52;98794.34;4885105;29;20060;-78
2021/09/25 15:56:40;;;;;;;13.20;4.85;;;;;;;13.48;49.73;98811.59;4885258;29;20040;-77
2021/09/25 15:59:09;;;;;;;10.15;4.57;;;;;;;13.49;49.87;98805.22;4885185;29;20143;-78
2021/09/25 16:01:37;;;;;;;13.85;4.78;;;;;;;13.51;50.13;98803.22;4900401;29;20135;-77
2021/09/25 16:04:04;;;;;;;9.77;4.63;;;;;;;13.46;50.19;98800.16;4931285;29;20055;-78
2021/09/25 16:06:33;;;;;;;18.75;4.45;;;;;;;13.32;50.45;98786.28;4900378;29;20056;-77
2021/09/25 16:09:01;;;;;;;16.02;4.30;;;;;;;13.40;50.65;98798.09;4916052;29;20044;-78
2021/09/25 16:11:29;;;;;;;13.15;4.13;;;;;;;13.38;50.51;98789.34;4916182;29;20131;-77
2021/09/25 16:13:57;;;;;;;13.30;4.70;;;;;;;13.38;50.80;98783.97;4869430;29;20079;-78
2021/09/25 16:16:24;;;;;;;10.73;4.13;;;;;;;13.39;50.22;98785.66;4932147;29;20044;-79
2021/09/25 16:18:51;;;;;;;7.82;4.38;;;;;;;13.44;50.24;98788.75;4884535;29;20062;-80
2021/09/25 16:21:20;;;;;;;9.25;4.88;;;;;;;13.45;50.51;98785.88;4869115;29;20204;-77
2021/09/25 16:23:48;;;;;;;11.48;3.88;;;;;;;13.38;50.15;98774.06;4916002;29;20096;-78
2021/09/25 16:26:14;;;;;;;8.68;4.32;;;;;;;13.47;50.11;98788.44;4915739;29;20040;-78
2021/09/25 16:28:40;;;;;;;7.90;4.10;;;;;;;13.52;50.44;98780.75;4883691;29;20139;-77
2021/09/25 16:31:06;;;;;;;10.65;5.18;;;;;;;13.48;50.66;98790.13;4884254;29;20094;-76
2021/09/25 16:33:34;;;;;;;9.02;4.85;;;;;;;13.47;51.00;98783.06;4899309;29;20051;-77
2021/09/25 16:36:00;;;;;;;14.20;5.47;;;;;;;13.29;50.80;98773.16;4915246;29;20044;-76
2021/09/25 16:38:26;;;;;;;20.42;7.80;;;;;;;13.34;51.39;98778.91;4899311;29;20619;-77
2021/09/25 16:40:54;;;;;;;21.85;7.90;;;;;;;13.22;51.33;98777.44;4899749;29;20099;-78
2021/09/25 16:43:20;;;;;;;52.70;12.95;;;;;;;13.04;52.20;98782.78;4899744;29;20080;-77
2021/09/25 16:45:51;;;;;;;53.90;14.40;;;;;;;12.97;53.22;98773.66;4915188;29;20131;-76
2021/09/25 16:48:17;;;;;;;80.55;17.58;;;;;;;12.88;53.61;98778.09;4884464;29;20136;-77
2021/09/25 16:50:43;;;;;;;91.18;18.90;;;;;;;12.79;54.07;98770.13;4915012;29;20048;-78
2021/09/25 16:53:10;;;;;;;90.35;20.60;;;;;;;12.75;54.07;98766.91;4899636;29;20063;-77
2021/09/25 16:55:37;;;;;;;96.45;21.90;;;;;;;12.63;54.33;98757.34;4899558;29;20058;-75
2021/09/25 16:58:07;;;;;;;97.13;21.48;;;;;;;12.79;54.38;98762.09;4899490;29;20044;-76
2021/09/25 17:00:33;;;;;;;85.15;23.73;;;;;;;12.83;54.84;98768.81;4915691;29;20056;-78
2021/09/25 17:03:03;;;;;;;87.28;22.30;;;;;;;12.70;54.97;98757.59;4894742;29;20565;-78
2021/09/25 17:05:31;;;;;;;101.95;22.30;;;;;;;12.59;54.80;98755.97;4879314;29;20061;-79
2021/09/25 17:07:58;;;;;;;96.57;22.58;;;;;;;12.65;55.21;98750.03;4878571;29;20440;-77
2021/09/25 17:10:27;;;;;;;80.75;20.40;;;;;;;12.68;54.67;98744.34;4879094;29;20136;-77
2021/09/25 17:12:53;;;;;;;58.35;18.88;;;;;;;12.53;54.85;98751.22;4879499;29;20519;-76
2021/09/25 17:15:20;;;;;;;46.00;15.43;;;;;;;12.38;55.34;98754.41;4879202;29;20112;-77
2021/09/25 17:17:49;;;;;;;33.90;14.68;;;;;;;12.21;55.97;98747.13;4863786;29;20447;-77
2021/09/25 17:20:18;;;;;;;38.88;14.88;;;;;;;12.30;56.25;98756.97;4879188;29;20052;-78
2021/09/25 17:22:45;;;;;;;31.38;14.15;;;;;;;12.18;57.07;98754.63;4861869;29;20133;-78
2021/09/25 17:25:13;;;;;;;31.95;14.40;;;;;;;12.28;56.88;98756.28;4874929;29;20076;-77
2021/09/25 17:27:40;;;;;;;33.70;14.05;;;;;;;12.02;56.92;98720.44;4822855;29;20077;-77
2021/09/25 17:30:07;;;;;;;27.58;12.38;;;;;;;12.14;57.24;98746.88;4838870;29;20057;-77
2021/09/25 17:32:34;;;;;;;26.48;13.35;;;;;;;12.11;57.96;98751.69;4808401;29;20448;-75
2021/09/25 17:35:02;;;;;;;30.75;14.32;;;;;;;12.11;57.90;98746.31;4826774;29;20164;-79
2021/09/25 17:37:29;;;;;;;34.13;17.17;;;;;;;11.99;58.89;98747.50;4818730;29;20123;-78
2021/09/25 17:39:58;;;;;;;33.25;18.27;;;;;;;11.99;59.16;98742.13;4803187;29;20066;-79
2021/09/25 17:42:24;;;;;;;27.92;16.35;;;;;;;11.95;59.02;98746.09;4754758;30;20051;-78
2021/09/25 17:44:53;;;;;;;23.60;15.57;;;;;;;11.93;59.32;98738.22;4754281;30;20047;-78
2021/09/25 17:47:19;;;;;;;26.23;16.00;;;;;;;11.82;59.94;98735.69;4768999;30;20410;-78
2021/09/25 17:49:48;;;;;;;34.75;15.40;;;;;;;11.79;59.95;98736.81;4753655;30;20091;-79
2021/09/25 17:52:15;;;;;;;26.87;15.23;;;;;;;11.75;59.94;98735.44;4754174;30;20154;-75
2021/09/25 17:54:44;;;;;;;26.10;15.82;;;;;;;11.77;60.09;98730.78;4754231;30;20055;-78
2021/09/25 17:57:14;;;;;;;28.83;16.65;;;;;;;11.71;59.71;98707.25;4769699;30;20172;-89
2021/09/25 17:59:43;;;;;;;32.53;16.00;;;;;;;12.06;59.38;98730.69;4754158;30;20051;-80
2021/09/25 18:02:10;;;;;;;24.00;15.97;;;;;;;12.04;59.68;98729.19;4769541;30;20075;-77
2021/09/25 18:04:43;;;;;;;21.92;14.25;;;;;;;11.87;59.54;98728.09;4752651;29;20182;-79
2021/09/25 18:07:11;;;;;;;28.02;14.40;;;;;;;11.79;60.53;98736.81;4775232;29;20149;-76
2021/09/25 18:09:38;;;;;;;29.75;14.27;;;;;;;11.72;60.21;98733.03;4790502;29;20058;-75
2021/09/25 18:12:07;;;;;;;30.25;14.63;;;;;;;11.76;59.85;98731.75;4774943;29;20093;-79
2021/09/25 18:14:33;;;;;;;24.85;15.00;;;;;;;11.74;60.29;98731.06;4775208;29;20056;-76
2021/09/25 18:16:59;;;;;;;26.10;14.30;;;;;;;11.71;60.38;98722.47;4789893;29;20050;-77
2021/09/25 18:19:26;;;;;;;24.90;15.60;;;;;;;11.67;60.56;98728.13;4805445;29;20061;-77
2021/09/25 18:21:52;;;;;;;22.95;15.40;;;;;;;11.63;61.26;98715.16;4805097;29;20042;-76
2021/09/25 18:24:18;;;;;;;25.17;16.15;;;;;;;11.72;60.49;98718.81;4790846;29;20050;-77
2021/09/25 18:26:45;;;;;;;22.42;15.30;;;;;;;11.72;59.96;98700.06;4818401;29;20058;-76
2021/09/25 18:29:10;;;;;;;21.10;13.60;;;;;;;11.84;59.93;98707.78;4821366;29;20148;-75
2021/09/25 18:31:37;;;;;;;14.85;11.88;;;;;;;11.79;59.82;98707.38;4821767;29;20061;-76
2021/09/25 18:34:05;;;;;;;18.27;11.90;;;;;;;11.94;59.42;98723.00;4806693;29;20399;-77
2021/09/25 18:36:31;;;;;;;25.88;11.65;;;;;;;11.92;60.04;98709.72;4806176;29;20088;-76
2021/09/25 18:38:57;;;;;;;15.25;12.02;;;;;;;11.85;59.92;98717.53;4828539;29;20061;-76
2021/09/25 18:41:23;;;;;;;19.05;11.95;;;;;;;11.88;59.71;98717.25;4876440;29;20141;-76
2021/09/25 18:43:52;;;;;;;15.27;11.98;;;;;;;11.76;60.43;98710.31;4860824;29;20140;-76
2021/09/25 18:46:18;;;;;;;22.45;15.27;;;;;;;11.62;60.77;98689.38;4860861;29;20053;-77
2021/09/25 18:48:44;;;;;;;24.27;15.60;;;;;;;11.53;60.82;98687.56;4861299;29;20045;-77
2021/09/25 18:51:10;;;;;;;19.10;14.23;;;;;;;11.59;61.19;98697.72;4846126;29;20461;-76
2021/09/25 18:53:38;;;;;;;24.48;15.18;;;;;;;11.58;61.25;98690.66;4880346;29;20053;-76
2021/09/25 18:56:05;;;;;;;18.13;13.68;;;;;;;11.39;61.62;98670.13;4902282;29;20056;-77
2021/09/25 18:58:31;;;;;;;21.25;14.55;;;;;;;11.62;60.66;98686.69;4902914;29;20052;-75
2021/09/25 19:00:57;;;;;;;24.50;14.23;;;;;;;11.70;60.97;98689.50;4902776;29;20044;-76
2021/09/25 19:03:23;;;;;;;23.70;15.15;;;;;;;11.79;60.30;98688.63;4902801;29;20138;-77
2021/09/25 19:05:51;;;;;;;22.98;16.70;;;;;;;11.86;60.01;98678.22;4887563;29;20466;-76
2021/09/25 19:08:17;;;;;;;24.83;16.48;;;;;;;12.00;59.93;98679.53;4902857;29;20526;-76
2021/09/25 19:10:44;;;;;;;36.03;17.05;;;;;;;11.94;59.96;98669.44;4902787;29;20505;-76
2021/09/25 19:13:15;;;;;;;26.85;16.50;;;;;;;12.05;59.68;98682.63;4902702;29;20503;-75
2021/09/25 19:15:44;;;;;;;30.23;16.73;;;;;;;12.09;59.42;98689.38;4903475;29;20064;-76
2021/09/25 19:18:10;;;;;;;27.75;15.68;;;;;;;12.10;59.47;98680.34;4887195;29;20105;-76
2021/09/25 19:20:36;;;;;;;24.73;15.10;;;;;;;12.15;59.36;98680.75;4903579;29;20108;-75
2021/09/25 19:23:03;;;;;;;32.13;15.30;;;;;;;12.11;59.04;98677.53;4902313;29;20048;-76
2021/09/25 19:25:29;;;;;;;28.08;16.05;;;;;;;12.15;59.13;98667.38;4902847;29;20472;-76
2021/09/25 19:27:55;;;;;;;31.83;16.63;;;;;;;12.23;58.46;98658.56;4902349;29;20130;-76
2021/09/25 19:30:21;;;;;;;32.00;16.27;;;;;;;12.29;58.21;98648.06;4886455;29;20040;-76
2021/09/25 19:32:49;;;;;;;51.42;17.80;;;;;;;12.38;57.80;98649.03;4902770;29;20051;-77
2021/09/25 19:35:15;;;;;;;40.60;19.15;;;;;;;12.51;57.73;98657.53;4917886;29;20513;-76
2021/09/25 19:37:41;;;;;;;47.67;16.98;;;;;;;12.57;57.10;98656.09;4902034;29;20051;-76
2021/09/25 19:40:08;;;;;;;40.25;15.70;;;;;;;12.62;56.82;98648.44;4902479;29;20368;-77
2021/09/25 19:42:34;;;;;;;40.40;17.38;;;;;;;12.74;56.57;98657.09;4902190;29;20044;-77
2021/09/25 19:45:01;;;;;;;58.72;17.02;;;;;;;12.80;56.11;98656.47;4902157;29;20052;-76
2021/09/25 19:47:27;;;;;;;45.95;16.60;;;;;;;12.76;56.29;98634.50;4917710;29;20122;-77
2021/09/25 19:49:53;;;;;;;58.78;17.58;;;;;;;12.84;55.93;98642.59;4902095;29;20509;-75
2021/09/25 19:52:19;;;;;;;39.67;15.10;;;;;;;12.91;55.52;98647.38;4902406;29;20050;-75
2021/09/25 19:54:45;;;;;;;34.45;15.05;;;;;;;12.89;55.33;98648.34;4901912;29;20056;-75
2021/09/25 19:57:11;;;;;;;35.88;14.70;;;;;;;12.89;55.38;98642.13;4902229;29;20609;-76
2021/09/25 19:59:38;;;;;;;36.78;15.18;;;;;;;12.89;55.23;98645.66;4886422;29;20611;-77
2021/09/25 20:02:04;;;;;;;46.38;15.13;;;;;;;12.88;55.07;98643.97;4901815;29;20188;-77
2021/09/25 20:04:30;;;;;;;52.05;14.35;;;;;;;12.88;55.32;98638.59;4900821;29;20130;-76
2021/09/25 20:06:56;;;;;;;46.90;13.30;;;;;;;12.83;55.16;98650.81;4902126;29;20189;-75
2021/09/25 20:09:22;;;;;;;43.58;14.93;;;;;;;12.85;55.52;98638.06;4885991;29;20138;-76
2021/09/25 20:11:49;;;;;;;49.15;14.20;;;;;;;12.76;55.33;98612.19;4870999;29;20063;-76
2021/09/25 20:14:15;;;;;;;48.47;13.07;;;;;;;12.75;55.62;98614.03;4901758;29;20044;-76
2021/09/25 20:16:41;;;;;;;51.30;13.10;;;;;;;12.63;55.22;98607.19;4917226;29;20052;-75
2021/09/25 20:19:10;;;;;;;49.45;14.90;;;;;;;12.59;55.93;98600.47;4871280;29;20146;-75
2021/09/25 20:21:37;;;;;;;53.65;14.43;;;;;;;12.63;55.67;98601.84;4902101;29;20040;-75
2021/09/25 20:24:03;;;;;;;71.82;15.68;;;;;;;12.46;56.02;98578.59;4901520;29;20392;-75
2021/09/25 20:26:30;;;;;;;46.08;13.88;;;;;;;12.46;56.29;98590.13;4904481;29;20046;-75
2021/09/25 20:28:56;;;;;;;47.65;14.35;;;;;;;12.48;56.26;98589.97;4920363;29;20043;-76
2021/09/25 20:31:27;;;;;;;56.20;15.27;;;;;;;12.54;56.39;98592.88;4916981;29;20063;-74
2021/09/25 20:33:56;;;;;;;50.20;14.20;;;;;;;12.63;55.78;98588.44;4930064;29;20523;-76
2021/09/25 20:36:22;;;;;;;55.08;13.90;;;;;;;12.73;55.63;98581.16;4920148;29;20055;-75
2021/09/25 20:38:48;;;;;;;60.72;14.85;;;;;;;12.72;55.33;98563.38;4920097;29;20406;-75
2021/09/25 20:41:14;;;;;;;49.33;13.60;;;;;;;12.89;55.05;98569.72;4920157;29;20051;-75
2021/09/25 20:43:40;;;;;;;40.13;12.00;;;;;;;12.95;54.57;98573.63;4920157;29;20134;-74
2021/09/25 20:46:06;;;;;;;42.35;11.05;;;;;;;13.04;54.03;98578.03;4919229;29;20411;-76
2021/09/25 20:48:32;;;;;;;36.90;12.38;;;;;;;13.06;53.77;98570.69;4919752;29;20058;-75
2021/09/25 20:50:58;;;;;;;36.50;11.30;;;;;;;13.06;54.03;98570.69;4903954;29;20059;-75
2021/09/25 20:53:24;;;;;;;42.13;12.45;;;;;;;13.05;53.68;98568.97;4903991;29;20102;-74
2021/09/25 20:55:50;;;;;;;51.05;11.45;;;;;;;13.04;53.70;98578.03;4919763;29;20135;-76
2021/09/25 20:58:16;;;;;;;43.28;11.75;;;;;;;12.83;54.34;98565.81;4904092;29;20044;-76
2021/09/25 21:00:43;;;;;;;42.65;11.40;;;;;;;12.92;54.06;98571.25;4919435;29;20082;-76
2021/09/25 21:03:09;;;;;;;38.90;11.13;;;;;;;13.00;54.20;98576.66;4919451;29;20055;-75
2021/09/25 21:05:38;;;;;;;40.10;11.60;;;;;;;13.06;54.14;98586.78;4919632;29;20049;-76
2021/09/25 21:08:04;;;;;;;40.67;17.33;;;;;;;13.00;54.10;98565.94;4919867;29;20159;-76
2021/09/25 21:10:30;;;;;;;40.55;16.58;;;;;;;13.04;54.28;98578.03;4919659;29;20495;-75
2021/09/25 21:12:56;;;;;;;30.85;15.05;;;;;;;12.93;54.91;98581.81;4903937;29;20095;-75
2021/09/25 21:15:22;;;;;;;40.38;15.43;;;;;;;12.76;55.43;98580.84;4919305;29;20577;-76
2021/09/25 21:17:49;;;;;;;25.60;12.75;;;;;;;12.69;55.78;98579.78;4888511;29;20047;-76
2021/09/25 21:20:14;;;;;;;24.15;12.68;;;;;;;12.65;55.90;98578.41;4916067;29;20095;-76
2021/09/25 21:22:40;;;;;;;19.65;10.70;;;;;;;12.49;56.47;98580.97;4914993;29;20071;-75
2021/09/25 21:25:09;;;;;;;18.67;11.07;;;;;;;12.37;57.08;98586.56;4919342;29;20052;-76
2021/09/25 21:27:35;;;;;;;19.90;10.07;;;;;;;12.28;56.99;98566.00;4919512;29;20057;-76
2021/09/25 21:30:01;;;;;;;17.60;9.20;;;;;;;12.32;57.24;98570.06;4919448;29;20039;-75
2021/09/25 21:32:27;;;;;;;27.83;9.15;;;;;;;12.15;57.57;98563.72;4865015;29;20060;-76
2021/09/25 21:34:53;;;;;;;14.50;8.10;;;;;;;12.07;57.90;98568.13;4880785;29;20095;-74
2021/09/25 21:37:19;;;;;;;13.80;8.43;;;;;;;11.96;58.42;98584.41;4895989;29;20052;-78
2021/09/25 21:39:45;;;;;;;23.42;9.77;;;;;;;11.90;58.38;98578.66;4896209;29;20149;-75
2021/09/25 21:42:11;;;;;;;16.02;9.95;;;;;;;11.77;58.60;98567.44;4895879;29;20048;-74
2021/09/25 21:44:37;;;;;;;14.98;9.68;;;;;;;11.81;58.21;98563.47;4864868;29;20053;-75
2021/09/25 21:47:03;;;;;;;18.02;10.77;;;;;;;11.82;58.01;98565.16;4896280;29;20052;-76
2021/09/25 21:49:29;;;;;;;12.27;8.90;;;;;;;11.91;57.80;98585.69;4895925;29;20052;-75
2021/09/25 21:51:55;;;;;;;18.75;8.75;;;;;;;11.89;58.28;98570.78;4896498;29;20101;-75
2021/09/25 21:54:22;;;;;;;18.02;9.63;;;;;;;11.90;57.77;98567.97;4880738;29;20115;-75
2021/09/25 21:56:47;;;;;;;19.75;10.10;;;;;;;11.85;57.82;98554.19;4895663;29;20083;-74
2021/09/25 21:59:13;;;;;;;15.75;9.75;;;;;;;11.77;57.70;98534.44;4896056;29;20523;-75
2021/09/25 22:01:39;;;;;;;16.23;11.43;;;;;;;11.80;57.69;98548.38;4880489;29;20447;-75
2021/09/25 22:04:06;;;;;;;19.58;11.57;;;;;;;11.75;57.79;98539.97;4914273;29;20070;-75
2021/09/25 22:06:33;;;;;;;13.95;10.80;;;;;;;11.78;57.64;98547.72;4918909;29;20071;-75
2021/09/25 22:09:00;;;;;;;17.67;11.45;;;;;;;11.79;57.96;98549.38;4918579;29;20054;-74
2021/09/25 22:11:25;;;;;;;21.15;12.98;;;;;;;11.79;57.55;98554.75;4902871;29;20044;-75
2021/09/25 22:13:51;;;;;;;26.98;13.25;;;;;;;11.91;57.48;98553.56;4918886;29;20079;-74
2021/09/25 22:16:17;;;;;;;32.90;14.43;;;;;;;12.01;57.10;98547.31;4915161;29;20048;-76
2021/09/25 22:18:44;;;;;;;21.02;12.82;;;;;;;12.07;57.00;98544.00;4899496;29;20139;-75
2021/09/25 22:21:11;;;;;;;20.35;12.77;;;;;;;12.08;57.08;98548.41;4902410;29;20052;-75
2021/09/25 22:23:37;;;;;;;17.67;12.88;;;;;;;12.01;57.31;98531.25;4918588;29;20495;-74
2021/09/25 22:26:03;;;;;;;19.38;13.45;;;;;;;12.01;57.49;98541.97;4917830;29;20058;-76
2021/09/25 22:28:29;;;;;;;21.55;13.98;;;;;;;12.08;57.36;98548.41;4903019;29;21052;-75
2021/09/25 22:30:55;;;;;;;21.30;13.60;;;;;;;12.07;57.68;98542.22;4918394;29;20623;-76
2021/09/25 22:33:24;;;;;;;17.08;14.60;;;;;;;12.01;57.38;98544.63;4918421;29;20052;-75
2021/09/25 22:35:53;;;;;;;17.90;13.15;;;;;;;11.75;57.81;98526.59;4918514;29;20044;-75
2021/09/25 22:38:20;;;;;;;;;;;;;;;11.72;58.17;98532.22;4918889;29;20062;-75
2021/09/25 22:40:47;;;;;;;13.20;11.32;;;;;;;11.68;58.24;98534.38;4934111;29;19922;-75
2021/09/25 22:43:14;;;;;;;17.40;11.48;;;;;;;11.72;58.14;98536.75;4918301;29;20051;-76
2021/09/25 22:45:40;;;;;;;11.63;10.40;;;;;;;11.78;58.23;98531.66;4918519;29;20171;-76
2021/09/25 22:48:06;;;;;;;17.52;11.80;;;;;;;11.85;57.73;98527.41;4918521;29;20126;-76
2021/09/25 22:50:32;;;;;;;17.75;10.95;;;;;;;11.89;57.88;98527.94;4918230;29;20075;-75
2021/09/25 22:52:58;;;;;;;22.33;11.10;;;;;;;11.75;57.47;98510.50;4935149;29;20048;-76
2021/09/25 22:55:24;;;;;;;23.13;10.50;;;;;;;11.84;57.57;98520.34;4918078;29;20126;-74
2021/09/25 22:57:50;;;;;;;20.73;11.15;;;;;;;11.83;57.54;98529.38;4917776;29;20554;-76
2021/09/25 23:00:16;;;;;;;23.80;11.00;;;;;;;11.89;57.74;98536.81;4915082;29;20051;-76
2021/09/25 23:02:42;;;;;;;20.50;10.93;;;;;;;11.96;57.86;98528.16;4898959;29;20110;-79
2021/09/25 23:05:08;;;;;;;35.67;10.73;;;;;;;12.02;57.38;98528.41;4917948;29;20134;-75
2021/09/25 23:07:35;;;;;;;30.50;11.63;;;;;;;12.07;57.18;98526.13;4918064;29;20414;-76
2021/09/25 23:10:01;;;;;;;41.72;11.68;;;;;;;12.15;57.12;98533.41;4916762;29;20048;-76
2021/09/25 23:12:27;;;;;;;37.25;12.27;;;;;;;12.23;57.02;98529.97;4918557;29;20118;-76
2021/09/25 23:14:53;;;;;;;63.47;13.60;;;;;;;12.24;56.89;98523.59;4917917;29;20052;-74
2021/09/25 23:17:19;;;;;;;65.00;14.13;;;;;;;12.24;57.12;98520.91;4914841;29;20084;-74
2021/09/25 23:19:45;;;;;;;65.80;14.82;;;;;;;12.20;56.95;98512.34;4930000;29;20607;-75
2021/09/25 23:22:10;;;;;;;68.07;13.18;;;;;;;12.05;56.81;98500.47;4917946;29;20172;-73
2021/09/25 23:24:36;;;;;;;70.57;12.93;;;;;;;11.98;56.94;98504.75;4917899;29;20406;-74
2021/09/25 23:27:02;;;;;;;63.33;12.60;;;;;;;12.03;57.26;98522.03;4917923;29;20396;-75
2021/09/25 23:29:28;;;;;;;58.28;12.60;;;;;;;12.01;57.35;98516.00;4917946;29;20059;-76
2021/09/25 23:31:58;;;;;;;56.70;10.13;;;;;;;11.88;57.17;98505.69;4918044;29;20098;-76
2021/09/25 23:34:25;;;;;;;50.85;11.25;;;;;;;11.89;57.63;98518.06;4917837;29;20043;-75
2021/09/25 23:36:51;;;;;;;45.53;10.38;;;;;;;11.90;57.85;98519.75;4917812;29;20119;-75
2021/09/25 23:39:18;;;;;;;44.83;10.07;;;;;;;11.90;57.48;98516.22;4936772;29;20067;-73
2021/09/25 23:41:44;;;;;;;53.33;11.35;;;;;;;12.05;57.63;98528.09;4921310;29;20048;-75
2021/09/25 23:44:10;;;;;;;42.50;9.35;;;;;;;12.12;57.17;98523.81;4921403;29;20059;-75
2021/09/25 23:46:36;;;;;;;30.00;8.00;;;;;;;12.19;57.17;98525.91;4921143;29;20059;-74
2021/09/25 23:49:02;;;;;;;34.97;8.27;;;;;;;12.19;56.99;98518.72;4921081;29;20086;-76
2021/09/25 23:51:28;;;;;;;29.08;7.65;;;;;;;12.28;56.74;98525.81;4905413;29;20075;-75
2021/09/25 23:53:54;;;;;;;25.85;7.72;;;;;;;12.25;56.58;98507.34;4937769;29;20487;-74
2021/09/25 23:56:21;;;;;;;34.92;7.13;;;;;;;12.36;56.39;98525.88;4921428;29;20142;-77
2021/09/25 23:58:47;;;;;;;39.08;8.57;;;;;;;12.37;56.48;98516.88;4920821;29;20048;-75
